Papeete, French Polynesia

7:34 PM TAHT on August 30, 2016 (GMT -1000)
Faaa | | Change Station

Elev 7 ft 17.56 °S, 149.61 °W | Updated 4 minutes ago

Scattered Clouds
Scattered Clouds
79 °F
Feels Like 79 °F
N
2
Wind Variable Wind from Variable

Today
High -- | Low -- °F
--% Chance of Precip.
Yesterday
High -- | Low -- °F
Precip. -- in
Pressure 30.01 in
Visibility 6.2 miles
Clouds Scattered Clouds 2500 ft
Dew Point 66 °F
Humidity 65%
Rainfall 0.00 in
Snow Depth Not available.
6:06 AM 5:51 PM
Waning Crescent, 1% visible
METAR NTAA 310530Z VRB02KT 9999 SCT025 26/19 Q1016 NOSIG
Pressure 30.01 in
Visibility 6.2 miles
Clouds Scattered Clouds 2500 ft
Dew Point 66 °F
Humidity 65%
Rainfall 0.00 in
Snow Depth Not available.
6:06 AM 5:51 PM
Waning Crescent, 1% visible
METAR NTAA 310530Z VRB02KT 9999 SCT025 26/19 Q1016 NOSIG

10-Day Weather Forecast

No radar image for this location.
×

Almanac

Astronomy

Aug. 30, 2016 Rise Set
Actual Time
Civil Twilight
Nautical Twilight
Astronomical Twilight
Moon
Length of Visible Light
Length of Day
Tomorrow will be .
, % of the Moon is Illuminated

Today's Extremes

Country Highs Country Lows

Community

WunderPhotos

Upload Photos

1,936,040 photos uploaded!

WunderBlog® & News

Nearby

Air Quality

  Air Quality AQ Index Pollutant
Not available.

Snow Depth

Station Depth Elevation

Earthquake Activity

City Distance Mag. Time & Date
Minimum magnitude displayed is 2.5.

Coastal Water Temperatures

Place Temperature

Stations

Nearby Weather Stations

Station Location Temp. Windchill Dew Point Humidity Wind Precip. Elev Updated Type